sensor_id;sensor_type;location;lat;lon;timestamp;pressure;altitude;pressure_sealevel;temperature;humidity
8699;BME280;4386;51.236;6.742;2023-09-19T00:00:12;96949.13;;;24.59;53.08
8699;BME280;4386;51.236;6.742;2023-09-19T00:01:30;96947.50;;;24.58;52.63
8699;BME280;4386;51.236;6.742;2023-09-19T00:02:35;96951.34;;;24.57;52.79
8699;BME280;4386;51.236;6.742;2023-09-19T00:03:42;96953.22;;;24.57;53.26
8699;BME280;4386;51.236;6.742;2023-09-19T00:04:46;96952.09;;;24.58;52.62
8699;BME280;4386;51.236;6.742;2023-09-19T00:05:53;96958.66;;;24.57;52.99
8699;BME280;4386;51.236;6.742;2023-09-19T00:06:59;96950.53;;;24.57;53.18
8699;BME280;4386;51.236;6.742;2023-09-19T00:08:06;96948.91;;;24.56;53.43
8699;BME280;4386;51.236;6.742;2023-09-19T00:09:09;96945.09;;;24.57;53.20
8699;BME280;4386;51.236;6.742;2023-09-19T00:10:14;96942.88;;;24.59;52.98
8699;BME280;4386;51.236;6.742;2023-09-19T00:11:21;96941.28;;;24.58;53.18
8699;BME280;4386;51.236;6.742;2023-09-19T00:12:28;96942.09;;;24.58;53.27
8699;BME280;4386;51.236;6.742;2023-09-19T00:13:33;96932.06;;;24.59;53.31
8699;BME280;4386;51.236;6.742;2023-09-19T00:14:39;96927.75;;;24.58;53.24
8699;BME280;4386;51.236;6.742;2023-09-19T00:15:44;96934.28;;;24.57;53.29
8699;BME280;4386;51.236;6.742;2023-09-19T00:16:53;96936.47;;;24.55;53.35
8699;BME280;4386;51.236;6.742;2023-09-19T00:17:57;96933.28;;;24.53;53.24
8699;BME280;4386;51.236;6.742;2023-09-19T00:19:02;96930.06;;;24.51;53.31
8699;BME280;4386;51.236;6.742;2023-09-19T00:20:06;96934.69;;;24.50;53.59
8699;BME280;4386;51.236;6.742;2023-09-19T00:21:15;96935.78;;;24.49;53.50
8699;BME280;4386;51.236;6.742;2023-09-19T00:22:18;96936.06;;;24.48;53.30
8699;BME280;4386;51.236;6.742;2023-09-19T00:23:23;96938.28;;;24.46;53.38
8699;BME280;4386;51.236;6.742;2023-09-19T00:24:27;96942.09;;;24.45;53.79
8699;BME280;4386;51.236;6.742;2023-09-19T00:25:32;96937.78;;;24.44;53.55
8699;BME280;4386;51.236;6.742;2023-09-19T00:26:37;96938.28;;;24.46;53.39
8699;BME280;4386;51.236;6.742;2023-09-19T00:27:42;96947.50;;;24.45;53.72
8699;BME280;4386;51.236;6.742;2023-09-19T00:28:46;96947.50;;;24.45;53.39
8699;BME280;4386;51.236;6.742;2023-09-19T00:29:50;96955.13;;;24.43;53.50
8699;BME280;4386;51.236;6.742;2023-09-19T00:30:55;96948.09;;;24.42;54.04
8699;BME280;4386;51.236;6.742;2023-09-19T00:31:59;96951.94;;;24.41;54.14
8699;BME280;4386;51.236;6.742;2023-09-19T00:33:04;96940.31;;;24.40;54.29
8699;BME280;4386;51.236;6.742;2023-09-19T00:34:10;96952.72;;;24.41;53.86
8699;BME280;4386;51.236;6.742;2023-09-19T00:35:13;96954.31;;;24.42;53.94
8699;BME280;4386;51.236;6.742;2023-09-19T00:36:18;96960.56;;;24.43;54.33
8699;BME280;4386;51.236;6.742;2023-09-19T00:37:21;96958.34;;;24.45;54.09
8699;BME280;4386;51.236;6.742;2023-09-19T00:38:25;96952.91;;;24.45;53.96
8699;BME280;4386;51.236;6.742;2023-09-19T00:39:30;96949.13;;;24.46;53.93
8699;BME280;4386;51.236;6.742;2023-09-19T00:40:34;96961.56;;;24.47;54.15
8699;BME280;4386;51.236;6.742;2023-09-19T00:41:39;96951.81;;;24.46;53.71
8699;BME280;4386;51.236;6.742;2023-09-19T00:42:44;96948.31;;;24.45;54.04
8699;BME280;4386;51.236;6.742;2023-09-19T00:43:47;96958.34;;;24.45;54.16
8699;BME280;4386;51.236;6.742;2023-09-19T00:44:53;96955.13;;;24.43;54.08
8699;BME280;4386;51.236;6.742;2023-09-19T00:45:56;96957.84;;;24.43;54.47
8699;BME280;4386;51.236;6.742;2023-09-19T00:47:03;96952.72;;;24.41;54.58
8699;BME280;4386;51.236;6.742;2023-09-19T00:48:07;96951.94;;;24.41;54.28
8699;BME280;4386;51.236;6.742;2023-09-19T00:49:12;96956.53;;;24.40;54.28
8699;BME280;4386;51.236;6.742;2023-09-19T00:50:18;96961.16;;;24.40;54.82
8699;BME280;4386;51.236;6.742;2023-09-19T00:51:25;96954.13;;;24.38;54.26
8699;BME280;4386;51.236;6.742;2023-09-19T00:52:28;96952.22;;;24.39;54.41
8699;BME280;4386;51.236;6.742;2023-09-19T00:53:32;96944.41;;;24.38;54.67
8699;BME280;4386;51.236;6.742;2023-09-19T00:54:36;96948.72;;;24.38;54.87
8699;BME280;4386;51.236;6.742;2023-09-19T00:55:41;96937.88;;;24.38;54.58
8699;BME280;4386;51.236;6.742;2023-09-19T00:56:47;96941.09;;;24.41;54.78
8699;BME280;4386;51.236;6.742;2023-09-19T00:57:55;96931.88;;;24.42;54.76
8699;BME280;4386;51.236;6.742;2023-09-19T00:58:59;96938.91;;;24.43;54.54
8699;BME280;4386;51.236;6.742;2023-09-19T01:00:05;96939.69;;;24.43;54.62
8699;BME280;4386;51.236;6.742;2023-09-19T01:01:17;96942.09;;;24.45;54.69
8699;BME280;4386;51.236;6.742;2023-09-19T01:02:22;96944.31;;;24.43;54.64
8699;BME280;4386;51.236;6.742;2023-09-19T01:03:25;96958.66;;;24.43;54.67
8699;BME280;4386;51.236;6.742;2023-09-19T01:04:31;96955.13;;;24.43;54.81
8699;BME280;4386;51.236;6.742;2023-09-19T01:05:34;96953.03;;;24.40;55.00
8699;BME280;4386;51.236;6.742;2023-09-19T01:06:39;96949.84;;;24.38;54.92
8699;BME280;4386;51.236;6.742;2023-09-19T01:07:43;96949.31;;;24.35;55.23
8699;BME280;4386;51.236;6.742;2023-09-19T01:08:48;96950.41;;;24.34;55.36
8699;BME280;4386;51.236;6.742;2023-09-19T01:09:51;96946.94;;;24.34;55.28
8699;BME280;4386;51.236;6.742;2023-09-19T01:11:01;96942.59;;;24.33;55.52
8699;BME280;4386;51.236;6.742;2023-09-19T01:12:08;96935.56;;;24.32;55.63
8699;BME280;4386;51.236;6.742;2023-09-19T01:13:21;96948.50;;;24.35;55.20
8699;BME280;4386;51.236;6.742;2023-09-19T01:14:31;96949.31;;;24.35;55.70
8699;BME280;4386;51.236;6.742;2023-09-19T01:15:44;96935.50;;;24.37;55.77
8699;BME280;4386;51.236;6.742;2023-09-19T01:16:57;96944.09;;;24.39;55.24
8699;BME280;4386;51.236;6.742;2023-09-19T01:18:13;96953.31;;;24.38;55.44
8699;BME280;4386;51.236;6.742;2023-09-19T01:20:57;96948.22;;;24.36;55.84
8699;BME280;4386;51.236;6.742;2023-09-19T01:22:12;96941.81;;;24.32;56.21
8699;BME280;4386;51.236;6.742;2023-09-19T01:23:26;96944.09;;;24.25;55.92
8699;BME280;4386;51.236;6.742;2023-09-19T01:25:01;96937.88;;;24.11;56.42
8699;BME280;4386;51.236;6.742;2023-09-19T01:26:21;96930.22;;;24.00;56.92
8699;BME280;4386;51.236;6.742;2023-09-19T01:27:57;96934.50;;;23.87;56.97
8699;BME280;4386;51.236;6.742;2023-09-19T01:29:19;96923.38;;;23.75;57.48
8699;BME280;4386;51.236;6.742;2023-09-19T01:30:35;96928.75;;;23.61;58.32
8699;BME280;4386;51.236;6.742;2023-09-19T01:31:44;96930.75;;;23.56;58.32
8699;BME280;4386;51.236;6.742;2023-09-19T01:32:47;96933.25;;;23.52;58.83
8699;BME280;4386;51.236;6.742;2023-09-19T01:33:57;96933.31;;;23.47;58.99
8699;BME280;4386;51.236;6.742;2023-09-19T01:35:02;96925.56;;;23.41;59.26
8699;BME280;4386;51.236;6.742;2023-09-19T01:36:08;96924.03;;;23.34;59.88
8699;BME280;4386;51.236;6.742;2023-09-19T01:37:12;96933.31;;;23.28;59.84
8699;BME280;4386;51.236;6.742;2023-09-19T01:38:16;96928.78;;;23.24;60.45
8699;BME280;4386;51.236;6.742;2023-09-19T01:39:19;96921.56;;;23.19;60.54
8699;BME280;4386;51.236;6.742;2023-09-19T01:40:24;96926.53;;;23.12;60.96
8699;BME280;4386;51.236;6.742;2023-09-19T01:41:44;96928.31;;;23.03;60.97
8699;BME280;4386;51.236;6.742;2023-09-19T01:42:52;96925.44;;;22.95;61.67
8699;BME280;4386;51.236;6.742;2023-09-19T01:44:01;96917.47;;;22.84;62.09
8699;BME280;4386;51.236;6.742;2023-09-19T01:45:12;96914.06;;;22.79;62.00
8699;BME280;4386;51.236;6.742;2023-09-19T01:46:22;96918.72;;;22.73;62.13
8699;BME280;4386;51.236;6.742;2023-09-19T01:47:33;96917.38;;;22.71;62.34
8699;BME280;4386;51.236;6.742;2023-09-19T01:48:41;96911.00;;;22.67;62.77
8699;BME280;4386;51.236;6.742;2023-09-19T01:49:56;96913.72;;;22.62;62.83
8699;BME280;4386;51.236;6.742;2023-09-19T01:51:06;96911.59;;;22.59;62.88
8699;BME280;4386;51.236;6.742;2023-09-19T01:52:12;96911.38;;;22.55;63.06
8699;BME280;4386;51.236;6.742;2023-09-19T01:53:23;96905.47;;;22.53;62.93
8699;BME280;4386;51.236;6.742;2023-09-19T01:54:33;96913.84;;;22.52;63.10
8699;BME280;4386;51.236;6.742;2023-09-19T01:55:43;96910.91;;;22.48;63.30
8699;BME280;4386;51.236;6.742;2023-09-19T01:56:57;96909.91;;;22.44;63.37
8699;BME280;4386;51.236;6.742;2023-09-19T01:58:06;96902.09;;;22.43;63.67
8699;BME280;4386;51.236;6.742;2023-09-19T01:59:14;96911.28;;;22.42;63.73
8699;BME280;4386;51.236;6.742;2023-09-19T02:00:20;96902.66;;;22.40;63.49
8699;BME280;4386;51.236;6.742;2023-09-19T02:01:28;96908.38;;;22.38;63.65
8699;BME280;4386;51.236;6.742;2023-09-19T02:02:33;96908.66;;;22.37;63.88
8699;BME280;4386;51.236;6.742;2023-09-19T02:03:38;96906.22;;;22.35;64.23
8699;BME280;4386;51.236;6.742;2023-09-19T02:04:43;96904.41;;;22.30;64.38
8699;BME280;4386;51.236;6.742;2023-09-19T02:05:49;96903.59;;;22.30;64.13
8699;BME280;4386;51.236;6.742;2023-09-19T02:06:53;96905.22;;;22.31;64.26
8699;BME280;4386;51.236;6.742;2023-09-19T02:07:58;96910.03;;;22.34;64.60
8699;BME280;4386;51.236;6.742;2023-09-19T02:09:01;96907.84;;;22.36;64.58
8699;BME280;4386;51.236;6.742;2023-09-19T02:10:07;96908.16;;;22.35;64.70
8699;BME280;4386;51.236;6.742;2023-09-19T02:11:12;96913.31;;;22.31;64.79
8699;BME280;4386;51.236;6.742;2023-09-19T02:12:18;96913.34;;;22.26;65.03
8699;BME280;4386;51.236;6.742;2023-09-19T02:13:22;96912.13;;;22.18;65.65
8699;BME280;4386;51.236;6.742;2023-09-19T02:14:28;96909.47;;;22.13;65.93
8699;BME280;4386;51.236;6.742;2023-09-19T02:15:32;96912.22;;;22.08;66.04
8699;BME280;4386;51.236;6.742;2023-09-19T02:16:38;96911.19;;;22.04;66.26
8699;BME280;4386;51.236;6.742;2023-09-19T02:17:42;96906.38;;;22.01;66.67
8699;BME280;4386;51.236;6.742;2023-09-19T02:18:47;96919.84;;;22.01;67.04
8699;BME280;4386;51.236;6.742;2023-09-19T02:19:52;96907.97;;;22.02;67.33
8699;BME280;4386;51.236;6.742;2023-09-19T02:20:57;96914.97;;;22.03;67.14
8699;BME280;4386;51.236;6.742;2023-09-19T02:22:01;96917.16;;;22.01;67.49
8699;BME280;4386;51.236;6.742;2023-09-19T02:23:10;96923.63;;;22.00;67.60
8699;BME280;4386;51.236;6.742;2023-09-19T02:24:14;96910.72;;;21.97;67.94
8699;BME280;4386;51.236;6.742;2023-09-19T02:25:19;96916.94;;;21.98;67.75
8699;BME280;4386;51.236;6.742;2023-09-19T02:26:22;96915.31;;;21.97;68.12
8699;BME280;4386;51.236;6.742;2023-09-19T02:27:29;96912.91;;;21.95;68.28
8699;BME280;4386;51.236;6.742;2023-09-19T02:28:34;96908.09;;;21.92;68.39
8699;BME280;4386;51.236;6.742;2023-09-19T02:29:38;96916.47;;;21.91;68.39
8699;BME280;4386;51.236;6.742;2023-09-19T02:30:42;96908.63;;;21.89;68.85
8699;BME280;4386;51.236;6.742;2023-09-19T02:31:47;96909.72;;;21.88;68.60
8699;BME280;4386;51.236;6.742;2023-09-19T02:32:51;96905.94;;;21.89;68.97
8699;BME280;4386;51.236;6.742;2023-09-19T02:33:58;96911.88;;;21.91;69.02
8699;BME280;4386;51.236;6.742;2023-09-19T02:35:03;96907.56;;;21.90;68.64
8699;BME280;4386;51.236;6.742;2023-09-19T02:36:28;96903.25;;;21.89;69.23
8699;BME280;4386;51.236;6.742;2023-09-19T02:37:48;96907.03;;;21.88;68.93
8699;BME280;4386;51.236;6.742;2023-09-19T02:39:03;96903.00;;;21.86;68.97
8699;BME280;4386;51.236;6.742;2023-09-19T02:40:08;96904.38;;;21.83;69.31
8699;BME280;4386;51.236;6.742;2023-09-19T02:41:24;96906.56;;;21.81;69.20
8699;BME280;4386;51.236;6.742;2023-09-19T02:42:27;96901.16;;;21.81;69.84
8699;BME280;4386;51.236;6.742;2023-09-19T02:43:32;96897.97;;;21.79;69.75
8699;BME280;4386;51.236;6.742;2023-09-19T02:44:36;96901.72;;;21.78;69.82
8699;BME280;4386;51.236;6.742;2023-09-19T02:45:41;96904.94;;;21.80;69.86
8699;BME280;4386;51.236;6.742;2023-09-19T02:46:46;96901.44;;;21.79;69.73
8699;BME280;4386;51.236;6.742;2023-09-19T02:47:51;96897.97;;;21.79;70.25
8699;BME280;4386;51.236;6.742;2023-09-19T02:48:54;96904.94;;;21.80;70.27
8699;BME280;4386;51.236;6.742;2023-09-19T02:49:58;96897.31;;;21.87;69.78
8699;BME280;4386;51.236;6.742;2023-09-19T02:51:01;96893.81;;;21.92;69.94
8699;BME280;4386;51.236;6.742;2023-09-19T02:52:06;96899.44;;;21.95;69.96
8699;BME280;4386;51.236;6.742;2023-09-19T02:53:10;96901.81;;;21.97;69.97
8699;BME280;4386;51.236;6.742;2023-09-19T02:54:15;96906.13;;;21.98;69.63
8699;BME280;4386;51.236;6.742;2023-09-19T02:55:19;96896.72;;;21.95;70.00
8699;BME280;4386;51.236;6.742;2023-09-19T02:56:24;96905.09;;;21.94;70.00
8699;BME280;4386;51.236;6.742;2023-09-19T02:57:27;96906.72;;;21.95;70.08
8699;BME280;4386;51.236;6.742;2023-09-19T02:58:32;96892.94;;;21.96;69.97
8699;BME280;4386;51.236;6.742;2023-09-19T02:59:38;96899.94;;;21.97;69.92
8699;BME280;4386;51.236;6.742;2023-09-19T03:00:44;96901.00;;;21.96;70.12
8699;BME280;4386;51.236;6.742;2023-09-19T03:01:55;96898.84;;;21.98;69.92
8699;BME280;4386;51.236;6.742;2023-09-19T03:03:03;96899.13;;;21.97;70.14
8699;BME280;4386;51.236;6.742;2023-09-19T03:04:14;96888.91;;;21.94;70.07
8699;BME280;4386;51.236;6.742;2023-09-19T03:05:23;96894.63;;;21.92;70.07
8699;BME280;4386;51.236;6.742;2023-09-19T03:06:29;96891.91;;;21.92;70.05
8699;BME280;4386;51.236;6.742;2023-09-19T03:07:33;96890.53;;;21.95;70.41
8699;BME280;4386;51.236;6.742;2023-09-19T03:08:39;96893.72;;;21.97;70.36
8699;BME280;4386;51.236;6.742;2023-09-19T03:09:45;96893.94;;;22.05;69.66
8699;BME280;4386;51.236;6.742;2023-09-19T03:10:48;96894.91;;;22.14;69.64
8699;BME280;4386;51.236;6.742;2023-09-19T03:11:52;96894.78;;;22.24;69.12
8699;BME280;4386;51.236;6.742;2023-09-19T03:12:57;96891.19;;;22.29;69.45
8699;BME280;4386;51.236;6.742;2023-09-19T03:14:03;96884.44;;;22.31;68.95
8699;BME280;4386;51.236;6.742;2023-09-19T03:15:07;96893.53;;;22.36;68.83
8699;BME280;4386;51.236;6.742;2023-09-19T03:16:12;96891.59;;;22.41;68.69
8699;BME280;4386;51.236;6.742;2023-09-19T03:17:19;96887.97;;;22.51;68.37
8699;BME280;4386;51.236;6.742;2023-09-19T03:18:24;96888.69;;;22.56;68.53
8699;BME280;4386;51.236;6.742;2023-09-19T03:19:29;96893.22;;;22.61;68.16
8699;BME280;4386;51.236;6.742;2023-09-19T03:20:35;96886.94;;;22.65;68.08
8699;BME280;4386;51.236;6.742;2023-09-19T03:21:39;96888.00;;;22.69;68.07
8699;BME280;4386;51.236;6.742;2023-09-19T03:22:43;96886.34;;;22.73;67.69
8699;BME280;4386;51.236;6.742;2023-09-19T03:23:47;96882.72;;;22.78;67.49
8699;BME280;4386;51.236;6.742;2023-09-19T03:24:51;96887.56;;;22.81;67.50
8699;BME280;4386;51.236;6.742;2023-09-19T03:25:55;96889.38;;;22.86;67.28
8699;BME280;4386;51.236;6.742;2023-09-19T03:26:59;96889.59;;;22.89;67.10
8699;BME280;4386;51.236;6.742;2023-09-19T03:28:03;96893.63;;;22.92;66.86
8699;BME280;4386;51.236;6.742;2023-09-19T03:29:08;96888.75;;;22.94;66.87
8699;BME280;4386;51.236;6.742;2023-09-19T03:30:13;96888.44;;;22.95;66.72
8699;BME280;4386;51.236;6.742;2023-09-19T03:31:17;96886.22;;;22.97;66.63
8699;BME280;4386;51.236;6.742;2023-09-19T03:32:22;96890.84;;;22.97;66.60
8699;BME280;4386;51.236;6.742;2023-09-19T03:33:27;96884.13;;;22.94;66.93
8699;BME280;4386;51.236;6.742;2023-09-19T03:34:30;96884.22;;;22.89;67.19
8699;BME280;4386;51.236;6.742;2023-09-19T03:35:36;96879.97;;;22.83;67.08
8699;BME280;4386;51.236;6.742;2023-09-19T03:36:39;96884.94;;;22.76;67.14
8699;BME280;4386;51.236;6.742;2023-09-19T03:37:44;96879.09;;;22.69;67.37
8699;BME280;4386;51.236;6.742;2023-09-19T03:38:47;96884.81;;;22.62;67.72
8699;BME280;4386;51.236;6.742;2023-09-19T03:39:51;96880.88;;;22.55;67.85
8699;BME280;4386;51.236;6.742;2023-09-19T03:40:54;96881.75;;;22.50;68.29
8699;BME280;4386;51.236;6.742;2023-09-19T03:41:58;96881.75;;;22.50;68.03
8699;BME280;4386;51.236;6.742;2023-09-19T03:43:02;96882.84;;;22.49;67.92
8699;BME280;4386;51.236;6.742;2023-09-19T03:44:06;96882.56;;;22.51;68.19
8699;BME280;4386;51.236;6.742;2023-09-19T03:45:10;96882.25;;;22.52;67.89
8699;BME280;4386;51.236;6.742;2023-09-19T03:46:15;96882.56;;;22.51;68.06
8699;BME280;4386;51.236;6.742;2023-09-19T03:47:18;96882.56;;;22.51;68.45
8699;BME280;4386;51.236;6.742;2023-09-19T03:48:24;96884.72;;;22.49;68.33
8699;BME280;4386;51.236;6.742;2023-09-19T03:49:27;96882.03;;;22.49;68.31
8699;BME280;4386;51.236;6.742;2023-09-19T03:50:33;96878.75;;;22.52;68.06
8699;BME280;4386;51.236;6.742;2023-09-19T03:51:37;96879.34;;;22.49;68.21
8699;BME280;4386;51.236;6.742;2023-09-19T03:52:44;96872.91;;;22.45;68.50
8699;BME280;4386;51.236;6.742;2023-09-19T03:53:48;96883.19;;;22.43;68.72
8699;BME280;4386;51.236;6.742;2023-09-19T03:54:53;96871.59;;;22.42;68.99
8699;BME280;4386;51.236;6.742;2023-09-19T03:55:57;96873.00;;;22.40;68.78
8699;BME280;4386;51.236;6.742;2023-09-19T03:57:00;96862.50;;;22.38;69.28
8699;BME280;4386;51.236;6.742;2023-09-19T03:58:05;96872.19;;;22.39;69.18
8699;BME280;4386;51.236;6.742;2023-09-19T03:59:08;96870.50;;;22.43;69.14
8699;BME280;4386;51.236;6.742;2023-09-19T04:00:13;96866.97;;;22.48;69.25
8699;BME280;4386;51.236;6.742;2023-09-19T04:01:17;96871.47;;;22.52;69.10
8699;BME280;4386;51.236;6.742;2023-09-19T04:02:22;96873.31;;;22.57;68.71
8699;BME280;4386;51.236;6.742;2023-09-19T04:03:27;96872.13;;;22.63;68.42
8699;BME280;4386;51.236;6.742;2023-09-19T04:04:38;96882.88;;;22.68;68.27
8699;BME280;4386;51.236;6.742;2023-09-19T04:05:42;96878.72;;;22.75;68.00
8699;BME280;4386;51.236;6.742;2023-09-19T04:06:46;96879.16;;;22.82;67.42
8699;BME280;4386;51.236;6.742;2023-09-19T04:07:49;96888.00;;;22.88;67.27
8699;BME280;4386;51.236;6.742;2023-09-19T04:08:54;96886.59;;;22.91;67.02
8699;BME280;4386;51.236;6.742;2023-09-19T04:09:57;96882.81;;;22.92;67.46
8699;BME280;4386;51.236;6.742;2023-09-19T04:11:01;96885.22;;;22.93;67.45
8699;BME280;4386;51.236;6.742;2023-09-19T04:12:05;96885.72;;;22.95;67.60
8699;BME280;4386;51.236;6.742;2023-09-19T04:13:09;96881.41;;;22.94;67.54
8699;BME280;4386;51.236;6.742;2023-09-19T04:14:13;96883.63;;;22.92;67.46
8699;BME280;4386;51.236;6.742;2023-09-19T04:15:17;96889.03;;;22.92;67.59
8699;BME280;4386;51.236;6.742;2023-09-19T04:16:21;96885.81;;;22.90;67.54
8699;BME280;4386;51.236;6.742;2023-09-19T04:17:25;96879.63;;;22.90;67.46
8699;BME280;4386;51.236;6.742;2023-09-19T04:18:30;96882.00;;;22.91;67.57
8699;BME280;4386;51.236;6.742;2023-09-19T04:19:36;96883.41;;;22.89;67.83
8699;BME280;4386;51.236;6.742;2023-09-19T04:20:39;96878.81;;;22.89;67.79
8699;BME280;4386;51.236;6.742;2023-09-19T04:21:43;96883.41;;;22.89;67.89
8699;BME280;4386;51.236;6.742;2023-09-19T04:22:47;96881.50;;;22.89;67.92
8699;BME280;4386;51.236;6.742;2023-09-19T04:23:51;96885.00;;;22.90;68.23
8699;BME280;4386;51.236;6.742;2023-09-19T04:24:54;96880.41;;;22.90;68.01
8699;BME280;4386;51.236;6.742;2023-09-19T04:25:59;96880.41;;;22.90;67.88
8699;BME280;4386;51.236;6.742;2023-09-19T04:27:03;96882.53;;;22.93;67.80
8699;BME280;4386;51.236;6.742;2023-09-19T04:28:07;96882.53;;;22.93;67.86
8699;BME280;4386;51.236;6.742;2023-09-19T04:29:10;96886.03;;;22.94;68.03
8699;BME280;4386;51.236;6.742;2023-09-19T04:30:16;96881.41;;;22.94;67.90
8699;BME280;4386;51.236;6.742;2023-09-19T04:31:19;96892.44;;;22.98;67.55
8699;BME280;4386;51.236;6.742;2023-09-19T04:32:24;96884.56;;;23.01;67.69
8699;BME280;4386;51.236;6.742;2023-09-19T04:33:35;96887.78;;;23.03;67.49
8699;BME280;4386;51.236;6.742;2023-09-19T04:34:40;96887.47;;;23.05;67.45
8699;BME280;4386;51.236;6.742;2023-09-19T04:35:43;96884.28;;;23.03;67.41
8699;BME280;4386;51.236;6.742;2023-09-19T04:36:47;96885.09;;;23.03;67.54
8699;BME280;4386;51.236;6.742;2023-09-19T04:37:50;96882.38;;;23.03;67.45
8699;BME280;4386;51.236;6.742;2023-09-19T04:38:57;96881.25;;;23.04;67.21
8699;BME280;4386;51.236;6.742;2023-09-19T04:40:01;96880.97;;;23.06;67.08
8699;BME280;4386;51.236;6.742;2023-09-19T04:41:08;96876.06;;;23.08;67.24
8699;BME280;4386;51.236;6.742;2023-09-19T04:42:13;96875.78;;;23.09;67.17
8699;BME280;4386;51.236;6.742;2023-09-19T04:43:18;96885.19;;;23.12;67.21
8699;BME280;4386;51.236;6.742;2023-09-19T04:44:21;96879.53;;;23.13;67.22
8699;BME280;4386;51.236;6.742;2023-09-19T04:45:25;96879.53;;;23.13;67.11
8699;BME280;4386;51.236;6.742;2023-09-19T04:46:29;96877.91;;;23.12;66.91
8699;BME280;4386;51.236;6.742;2023-09-19T04:47:33;96890.00;;;23.15;66.62
8699;BME280;4386;51.236;6.742;2023-09-19T04:48:37;96881.91;;;23.15;66.78
8699;BME280;4386;51.236;6.742;2023-09-19T04:49:43;96880.28;;;23.14;67.28
8699;BME280;4386;51.236;6.742;2023-09-19T04:50:48;96890.38;;;23.08;67.16
8699;BME280;4386;51.236;6.742;2023-09-19T04:51:52;96889.91;;;23.06;67.42
8699;BME280;4386;51.236;6.742;2023-09-19T04:52:56;96882.06;;;23.05;67.49
8699;BME280;4386;51.236;6.742;2023-09-19T04:54:00;96886.38;;;23.06;67.22
8699;BME280;4386;51.236;6.742;2023-09-19T04:55:04;96891.47;;;23.07;67.20
8699;BME280;4386;51.236;6.742;2023-09-19T04:56:08;96892.00;;;23.09;66.82
8699;BME280;4386;51.236;6.742;2023-09-19T04:57:12;96890.59;;;23.12;66.81
8699;BME280;4386;51.236;6.742;2023-09-19T04:58:16;96887.91;;;23.12;66.74
8699;BME280;4386;51.236;6.742;2023-09-19T04:59:21;96895.41;;;23.15;66.66
8699;BME280;4386;51.236;6.742;2023-09-19T05:00:25;96887.31;;;23.15;66.66
8699;BME280;4386;51.236;6.742;2023-09-19T05:01:32;96897.31;;;23.14;66.92
8699;BME280;4386;51.236;6.742;2023-09-19T05:02:36;96898.13;;;23.15;66.88
8699;BME280;4386;51.236;6.742;2023-09-19T05:03:42;96900.00;;;23.14;67.08
8699;BME280;4386;51.236;6.742;2023-09-19T05:04:47;96900.81;;;23.15;66.68
8699;BME280;4386;51.236;6.742;2023-09-19T05:05:50;96907.53;;;23.17;66.63
8699;BME280;4386;51.236;6.742;2023-09-19T05:06:54;96915.06;;;23.20;65.88
8699;BME280;4386;51.236;6.742;2023-09-19T05:07:58;96917.16;;;23.23;66.30
8699;BME280;4386;51.236;6.742;2023-09-19T05:09:07;96908.78;;;23.25;66.33
8699;BME280;4386;51.236;6.742;2023-09-19T05:10:11;96922.00;;;23.26;66.12
8699;BME280;4386;51.236;6.742;2023-09-19T05:11:15;96924.41;;;23.28;65.94
8699;BME280;4386;51.236;6.742;2023-09-19T05:12:18;96917.38;;;23.27;66.13
8699;BME280;4386;51.236;6.742;2023-09-19T05:13:22;96927.91;;;23.28;65.96
8699;BME280;4386;51.236;6.742;2023-09-19T05:14:26;96924.72;;;23.26;65.89
8699;BME280;4386;51.236;6.742;2023-09-19T05:15:30;96920.38;;;23.25;66.22
8699;BME280;4386;51.236;6.742;2023-09-19T05:16:33;96924.19;;;23.24;65.88
8699;BME280;4386;51.236;6.742;2023-09-19T05:17:38;96928.78;;;23.24;66.16
8699;BME280;4386;51.236;6.742;2023-09-19T05:18:43;96923.69;;;23.22;66.40
8699;BME280;4386;51.236;6.742;2023-09-19T05:19:47;96920.19;;;23.22;66.44
8699;BME280;4386;51.236;6.742;2023-09-19T05:20:51;96927.19;;;23.23;66.39
8699;BME280;4386;51.236;6.742;2023-09-19T05:21:55;96921.78;;;23.23;66.49
8699;BME280;4386;51.236;6.742;2023-09-19T05:22:59;96927.97;;;23.23;66.72
8699;BME280;4386;51.236;6.742;2023-09-19T05:24:05;96925.25;;;23.23;66.74
8699;BME280;4386;51.236;6.742;2023-09-19T05:25:12;96926.88;;;23.24;66.50
8699;BME280;4386;51.236;6.742;2023-09-19T05:26:18;96928.78;;;23.24;66.70
8699;BME280;4386;51.236;6.742;2023-09-19T05:27:22;96933.91;;;23.25;66.63
8699;BME280;4386;51.236;6.742;2023-09-19T05:28:26;96931.19;;;23.25;66.81
8699;BME280;4386;51.236;6.742;2023-09-19T05:29:30;96928.50;;;23.25;66.82
8699;BME280;4386;51.236;6.742;2023-09-19T05:30:33;96937.09;;;23.27;66.48
8699;BME280;4386;51.236;6.742;2023-09-19T05:31:39;96932.81;;;23.26;66.44
8699;BME280;4386;51.236;6.742;2023-09-19T05:32:43;96937.09;;;23.27;66.54
8699;BME280;4386;51.236;6.742;2023-09-19T05:33:49;96937.63;;;23.29;66.55
8699;BME280;4386;51.236;6.742;2023-09-19T05:34:52;96938.41;;;23.30;66.39
8699;BME280;4386;51.236;6.742;2023-09-19T05:35:58;96938.22;;;23.26;66.60
8699;BME280;4386;51.236;6.742;2023-09-19T05:37:01;96942.59;;;23.22;66.68
8699;BME280;4386;51.236;6.742;2023-09-19T05:38:06;96938.38;;;23.16;66.67
8699;BME280;4386;51.236;6.742;2023-09-19T05:39:11;96942.22;;;23.10;66.97
8699;BME280;4386;51.236;6.742;2023-09-19T05:40:16;96940.09;;;23.07;67.31
8699;BME280;4386;51.236;6.742;2023-09-19T05:41:19;96939.03;;;23.08;67.02
8699;BME280;4386;51.236;6.742;2023-09-19T05:42:24;96946.53;;;23.11;67.06
8699;BME280;4386;51.236;6.742;2023-09-19T05:43:28;96950.53;;;23.14;66.65
8699;BME280;4386;51.236;6.742;2023-09-19T05:44:32;96952.97;;;23.15;66.51
8699;BME280;4386;51.236;6.742;2023-09-19T05:45:35;96953.47;;;23.17;66.40
8699;BME280;4386;51.236;6.742;2023-09-19T05:46:40;96945.09;;;23.19;66.42
8699;BME280;4386;51.236;6.742;2023-09-19T05:47:43;96952.38;;;23.18;66.45
8699;BME280;4386;51.236;6.742;2023-09-19T05:48:49;96951.34;;;23.14;66.47
8699;BME280;4386;51.236;6.742;2023-09-19T05:49:53;96952.53;;;23.08;66.55
8699;BME280;4386;51.236;6.742;2023-09-19T05:50:56;96949.38;;;23.01;67.17
8699;BME280;4386;51.236;6.742;2023-09-19T05:52:00;96944.06;;;22.96;67.12
8699;BME280;4386;51.236;6.742;2023-09-19T05:53:04;96948.44;;;22.92;67.65
8699;BME280;4386;51.236;6.742;2023-09-19T05:54:08;96952.22;;;22.91;67.77
8699;BME280;4386;51.236;6.742;2023-09-19T05:55:11;96955.50;;;22.88;67.78
8699;BME280;4386;51.236;6.742;2023-09-19T05:56:15;96951.22;;;22.87;68.01
8699;BME280;4386;51.236;6.742;2023-09-19T05:57:19;96950.41;;;22.87;68.03
8699;BME280;4386;51.236;6.742;2023-09-19T05:58:25;96952.31;;;22.86;68.20
8699;BME280;4386;51.236;6.742;2023-09-19T05:59:29;96959.81;;;22.89;68.34